Decoded Metar for GCGM (LA GOMERA in SPAIN) (IATA:N/A) | Meteo·Mobile Aviation Weather
aviador You're here:

GCGM Decoded Metar

LA GOMERA in SPAIN
Report Time2018-10-17 02:30:00
UTC Time2018-10-17 02:43:42
Flight Rules vfr VFR
Wind280° at 04 kt
W.Decomp.*RWY 27: 3.8 kt HW 1.1 kt RCW
W.Rank280° ranks 9
Current wind is below 280° avg. (6.1)
Visibility9999 m
Phenomena:N/A
Clouds:N/A
Expected CloudBase > 2,400 ft AGL from Temp-Dew spread
CeilingNone
Temp20°C
Dew Point14°C (69% RH)
AAT19.9°C
QNH1019 hPa
Raw Report
METAR GCGM 170230Z AUTO 28004KT 9999 NCD 20/14 Q1019 RMK
R09/30004KT 270V350 ARP/31005KT=

Extra information for GCGM:More info

Metar Taf Metar & Taf Last 4 Metars F.Rules Stats Wind Profile Meteogram Temp Stats Airport Information Weather charts Add Link Nearby VenuesMetar ALERT Operation Metar Decoded Social comments